• Join FlightAware (Why Join?)
  • Login
  • US Flag 
11:21AM EDT


 

Airport Tracker/Info


-or-


 

Live Flight TrackerFlight Track Log ✈ N40GS ✈ 09-Jun-2013 ✈ KBED - KESN

Flight Track Log - Related Links

Times and Time Zones

All times are in EDT time to prevent confusion due to time zone crossing. See the N40GS flight status page for this flight to view local times or setup timezone preferences in your user account.

Time Position Orientation Groundspeed Altitude Reporting Facility
EDT Latitude Longitude Course Direction KTS MPH feet Rate Location/Type
08:35PM 42.4000 -71.3500 200° South 239 275 4,300  Level KA90
08:36PM 42.3333 -71.3000 151° Southeast 254 292 7,900 2,340 Climbing KA90
08:37PM 42.3000 -71.2167 118° Southeast 283 326 9,000 840 Climbing KA90
08:38PM 42.2500 -71.1333 129° Southeast 296 341 9,600 1,920 Climbing KA90
08:39PM 42.2039 -71.0078 116° Southeast 346 398 13,300 1,980 Climbing Boston Center
08:40PM 42.1608 -70.9025 119° Southeast 335 386 14,000 300 Climbing Boston Center
08:41PM 42.1117 -70.8225 130° Southeast 330 380 14,000 540 Level Boston Center
08:42PM 42.0175 -70.7914 166° South 310 357 15,100 1,740 Climbing Boston Center
08:43PM 41.9214 -70.7717 171° South 328 377 17,500 2,040 Climbing Boston Center
08:44PM 41.8233 -70.7686 179° South 343 395 19,200 1,860 Climbing Boston Center
08:45PM 41.7383 -70.8097 200° South 343 395 21,300 2,100 Climbing Boston Center
08:46PM 41.6622 -70.8811 215° Southwest 324 373 23,400 1,920 Climbing Boston Center
08:47PM 41.5819 -70.9442 210° Southwest 324 373 25,200 1,680 Climbing Boston Center
08:48PM 41.5142 -71.0261 222° Southwest 330 380 26,800 1,620 Climbing Boston Center
08:49PM 41.4550 -71.1244 231° Southwest 330 380 28,500 1,500 Climbing Boston Center
08:50PM 41.3956 -71.2197 230° Southwest 336 387 29,800 720 Climbing Boston Center
08:51PM 41.3342 -71.3206 231° Southwest 342 394 30,000 60 Climbing Boston Center
08:52PM 41.2806 -71.4069 230° Southwest 357 411 30,000  Level Boston Center
08:53PM 41.1983 -71.5381 230° Southwest 381 438 30,000  Level Boston Center
08:54PM 41.1389 -71.6436 233° Southwest 381 438 30,000  Level Boston Center
08:55PM 41.0981 -71.7736 247° West 375 432 30,000  Level Boston Center
08:56PM 41.0489 -71.9364 248° West 385 443 30,000  Level Boston Center
08:57PM 41.0056 -72.0633 246° West 391 450 30,000  Level Boston Center
08:58PM 40.9622 -72.1900 246° West 391 450 30,000  Level Boston Center
08:59PM 40.9144 -72.3164 243° Southwest 391 450 30,000  Level Boston Center
09:00PM 40.8353 -72.4181 224° Southwest 384 442 30,000  Level Boston Center
09:01PM 40.7539 -72.5114 221° Southwest 389 448 30,000  Level Boston Center
09:02PM 40.6686 -72.6042 220° Southwest 389 448 30,000  Level Boston Center
09:03PM 40.5892 -72.6969 222° Southwest 394 453 30,000  Level Boston Center
09:04PM 40.5014 -72.7922 220° Southwest 399 459 30,000  Level Boston Center
09:05PM 40.4219 -72.8872 222° Southwest 399 459 30,000  Level Boston Center
09:06PM 40.3381 -72.9819 221° Southwest 399 459 30,000  Level Boston Center
09:07PM 40.2394 -73.0953 221° Southwest 405 466 30,000  Level Boston Center
09:10PM 40.0564 -73.3119 222° Southwest 388 447 30,000  Level Washington Center
09:11PM 39.9889 -73.3844 219° Southwest 393 452 30,000  Level Washington Center
09:12PM 39.8928 -73.4847 219° Southwest 399 459 30,000  Level Washington Center
09:13PM 39.8111 -73.5792 222° Southwest 404 465 30,000 -300 Level Washington Center
09:14PM 39.7253 -73.6733 220° Southwest 399 459 29,500 -720 Descending Washington Center
09:15PM 39.6411 -73.7644 220° Southwest 399 459 28,600 -960 Descending Washington Center
09:16PM 39.5550 -73.8608 221° Southwest 399 459 27,600 -1,680 Descending Washington Center
09:17PM 39.4711 -73.9569 222° Southwest 404 465 25,300 -1,860 Descending Washington Center
09:18PM 39.3828 -74.0531 220° Southwest 404 465 24,000 -780 Descending Washington Center
09:19PM 39.3006 -74.1433 220° Southwest 399 459 23,800 -600 Descending Washington Center
09:20PM 39.2161 -74.2333 220° Southwest 399 459 22,900 -960 Descending Washington Center
09:21PM 39.1336 -74.3233 220° Southwest 399 459 22,000 -1,020 Descending Washington Center
09:22PM 39.0492 -74.4156 220° Southwest 399 459 20,900 -1,320 Descending Washington Center
09:23PM 38.9731 -74.5103 224° Southwest 399 459 19,400 -1,500 Descending Washington Center
09:24PM 38.9197 -74.6339 241° Southwest 380 437 17,900 -1,440 Descending Washington Center
09:25PM 38.8958 -74.7594 256° West 367 422 16,600 -1,440 Descending Washington Center
09:26PM 38.8717 -74.8903 257° West 367 422 15,100 -1,440 Descending Washington Center
09:27PM 38.8492 -75.0133 257° West 373 429 13,700 -1,500 Descending Washington Center
09:28PM 38.8269 -75.1358 257° West 368 423 12,200 -1,500 Descending Washington Center
09:29PM 38.8086 -75.2453 258° West 347 399 10,800 -1,680 Descending Washington Center
09:30PM 38.8025 -75.3439 265° West 311 358 8,900 -1,920 Descending Washington Center
09:31PM 38.7964 -75.4397 265° West 285 328 6,900 -1,920 Descending Washington Center
09:32PM 38.7944 -75.5331 268° West 275 316 5,100 -1,560 Descending Washington Center
09:33PM 38.7967 -75.6264 272° West 270 311 3,900 -1,080 Descending Washington Center
09:34PM 38.7986 -75.7194 272° West 270 311 3,000 -480 Descending Washington Center
09:35PM 38.8047 -75.8128 275° West 270 311 3,000 -60 Level Washington Center
09:36PM 38.8044 -75.8953 270° West 270 311 2,900 -360 Descending Washington Center
09:37PM 38.8294 -75.9542 299° West 232 267 2,300 -780 Descending Washington Center
09:39PM 38.8167 -76.0667 262° West 140 161 500 -840 Descending Potomac TRACON
09:41PM 38.8000 -76.0667 345° North  Level FlightAware Approximate
09:48PM 38.8042 -76.0690 345° North  Level Estimated
09:49PM 38.8000 -76.0667 345° North  Level FlightAware Approximate
09:50PM 38.8042 -76.0690 345° North  Level Estimated
09:51PM 38.8000 -76.0667 345° North  Level FlightAware Approximate